sensor_id;sensor_type;location;lat;lon;timestamp;P1;durP1;ratioP1;P2;durP2;ratioP2
3587;SDS011;1808;53.596;9.972;2022-08-01T00:00:41;27.40;;;18.38;;
3587;SDS011;1808;53.596;9.972;2022-08-01T00:03:08;29.15;;;21.38;;
3587;SDS011;1808;53.596;9.972;2022-08-01T00:05:34;32.05;;;20.55;;
3587;SDS011;1808;53.596;9.972;2022-08-01T00:08:02;29.15;;;21.05;;
3587;SDS011;1808;53.596;9.972;2022-08-01T00:10:29;27.98;;;20.65;;
3587;SDS011;1808;53.596;9.972;2022-08-01T00:12:55;30.77;;;22.08;;
3587;SDS011;1808;53.596;9.972;2022-08-01T00:15:22;26.52;;;18.92;;
3587;SDS011;1808;53.596;9.972;2022-08-01T00:17:48;28.42;;;19.30;;
3587;SDS011;1808;53.596;9.972;2022-08-01T00:20:14;28.42;;;19.50;;
3587;SDS011;1808;53.596;9.972;2022-08-01T00:22:41;26.75;;;20.20;;
3587;SDS011;1808;53.596;9.972;2022-08-01T00:25:09;27.33;;;20.45;;
3587;SDS011;1808;53.596;9.972;2022-08-01T00:27:35;27.50;;;19.00;;
3587;SDS011;1808;53.596;9.972;2022-08-01T00:30:02;29.45;;;19.20;;
3587;SDS011;1808;53.596;9.972;2022-08-01T00:32:29;24.83;;;18.10;;
3587;SDS011;1808;53.596;9.972;2022-08-01T00:34:56;27.60;;;19.80;;
3587;SDS011;1808;53.596;9.972;2022-08-01T00:37:22;26.00;;;18.20;;
3587;SDS011;1808;53.596;9.972;2022-08-01T00:39:49;29.13;;;21.98;;
3587;SDS011;1808;53.596;9.972;2022-08-01T00:42:17;26.65;;;19.05;;
3587;SDS011;1808;53.596;9.972;2022-08-01T00:44:43;30.48;;;22.05;;
3587;SDS011;1808;53.596;9.972;2022-08-01T00:47:10;31.35;;;19.40;;
3587;SDS011;1808;53.596;9.972;2022-08-01T00:49:36;28.92;;;19.58;;
3587;SDS011;1808;53.596;9.972;2022-08-01T00:52:03;26.70;;;18.67;;
3587;SDS011;1808;53.596;9.972;2022-08-01T00:54:30;29.65;;;19.10;;
3587;SDS011;1808;53.596;9.972;2022-08-01T00:56:57;27.15;;;16.23;;
3587;SDS011;1808;53.596;9.972;2022-08-01T00:59:25;27.60;;;18.02;;
3587;SDS011;1808;53.596;9.972;2022-08-01T01:01:52;26.05;;;16.30;;
3587;SDS011;1808;53.596;9.972;2022-08-01T01:04:18;27.20;;;19.88;;
3587;SDS011;1808;53.596;9.972;2022-08-01T01:06:46;22.27;;;15.73;;
3587;SDS011;1808;53.596;9.972;2022-08-01T01:09:21;22.48;;;14.60;;
3587;SDS011;1808;53.596;9.972;2022-08-01T01:11:56;23.65;;;16.75;;
3587;SDS011;1808;53.596;9.972;2022-08-01T01:14:30;21.67;;;15.20;;
3587;SDS011;1808;53.596;9.972;2022-08-01T01:16:59;24.17;;;17.57;;
3587;SDS011;1808;53.596;9.972;2022-08-01T01:19:28;24.02;;;16.30;;
3587;SDS011;1808;53.596;9.972;2022-08-01T01:22:12;23.35;;;15.27;;
3587;SDS011;1808;53.596;9.972;2022-08-01T01:24:48;28.23;;;15.52;;
3587;SDS011;1808;53.596;9.972;2022-08-01T01:27:24;26.23;;;15.23;;
3587;SDS011;1808;53.596;9.972;2022-08-01T01:29:57;24.58;;;14.43;;
3587;SDS011;1808;53.596;9.972;2022-08-01T01:32:26;26.60;;;16.52;;
3587;SDS011;1808;53.596;9.972;2022-08-01T01:34:58;27.08;;;15.50;;
3587;SDS011;1808;53.596;9.972;2022-08-01T01:37:25;26.55;;;16.67;;
3587;SDS011;1808;53.596;9.972;2022-08-01T01:39:52;24.95;;;16.70;;
3587;SDS011;1808;53.596;9.972;2022-08-01T01:42:19;30.25;;;15.80;;
3587;SDS011;1808;53.596;9.972;2022-08-01T01:44:46;28.63;;;16.38;;
3587;SDS011;1808;53.596;9.972;2022-08-01T01:47:16;26.52;;;15.68;;
3587;SDS011;1808;53.596;9.972;2022-08-01T01:49:43;24.30;;;15.60;;
3587;SDS011;1808;53.596;9.972;2022-08-01T01:52:10;29.83;;;16.73;;
3587;SDS011;1808;53.596;9.972;2022-08-01T01:54:39;35.08;;;18.15;;
3587;SDS011;1808;53.596;9.972;2022-08-01T01:57:08;30.65;;;17.25;;
3587;SDS011;1808;53.596;9.972;2022-08-01T01:59:36;35.17;;;18.83;;
3587;SDS011;1808;53.596;9.972;2022-08-01T02:02:04;32.60;;;16.95;;
3587;SDS011;1808;53.596;9.972;2022-08-01T02:04:33;31.50;;;17.70;;
3587;SDS011;1808;53.596;9.972;2022-08-01T02:07:02;30.52;;;17.83;;
3587;SDS011;1808;53.596;9.972;2022-08-01T02:09:29;31.92;;;17.98;;
3587;SDS011;1808;53.596;9.972;2022-08-01T02:11:56;31.13;;;17.25;;
3587;SDS011;1808;53.596;9.972;2022-08-01T02:14:24;27.65;;;15.00;;
3587;SDS011;1808;53.596;9.972;2022-08-01T02:16:52;27.80;;;17.80;;
3587;SDS011;1808;53.596;9.972;2022-08-01T02:19:18;29.88;;;17.58;;
3587;SDS011;1808;53.596;9.972;2022-08-01T02:21:48;25.92;;;16.23;;
3587;SDS011;1808;53.596;9.972;2022-08-01T02:24:19;25.65;;;17.63;;
3587;SDS011;1808;53.596;9.972;2022-08-01T02:26:49;26.98;;;16.70;;
3587;SDS011;1808;53.596;9.972;2022-08-01T02:29:19;26.77;;;17.52;;
3587;SDS011;1808;53.596;9.972;2022-08-01T02:31:49;27.17;;;17.50;;
3587;SDS011;1808;53.596;9.972;2022-08-01T02:34:17;33.47;;;18.25;;
3587;SDS011;1808;53.596;9.972;2022-08-01T02:36:46;28.95;;;18.10;;
3587;SDS011;1808;53.596;9.972;2022-08-01T02:39:15;33.65;;;19.08;;
3587;SDS011;1808;53.596;9.972;2022-08-01T02:41:47;28.88;;;17.55;;
3587;SDS011;1808;53.596;9.972;2022-08-01T02:44:15;30.00;;;17.83;;
3587;SDS011;1808;53.596;9.972;2022-08-01T02:46:47;24.33;;;16.90;;
3587;SDS011;1808;53.596;9.972;2022-08-01T02:49:16;26.70;;;17.92;;
3587;SDS011;1808;53.596;9.972;2022-08-01T02:51:44;26.23;;;16.65;;
3587;SDS011;1808;53.596;9.972;2022-08-01T02:54:13;21.45;;;15.13;;
3587;SDS011;1808;53.596;9.972;2022-08-01T02:56:42;20.95;;;14.07;;
3587;SDS011;1808;53.596;9.972;2022-08-01T02:59:12;26.08;;;17.33;;
3587;SDS011;1808;53.596;9.972;2022-08-01T03:01:41;22.23;;;14.18;;
3587;SDS011;1808;53.596;9.972;2022-08-01T03:04:10;20.58;;;13.32;;
3587;SDS011;1808;53.596;9.972;2022-08-01T03:06:36;23.80;;;16.25;;
3587;SDS011;1808;53.596;9.972;2022-08-01T03:09:05;24.70;;;13.85;;
3587;SDS011;1808;53.596;9.972;2022-08-01T03:11:32;21.58;;;14.70;;
3587;SDS011;1808;53.596;9.972;2022-08-01T03:14:01;21.75;;;15.25;;
3587;SDS011;1808;53.596;9.972;2022-08-01T03:16:29;25.63;;;14.82;;
3587;SDS011;1808;53.596;9.972;2022-08-01T03:18:57;21.15;;;13.73;;
3587;SDS011;1808;53.596;9.972;2022-08-01T03:21:25;20.88;;;13.60;;
3587;SDS011;1808;53.596;9.972;2022-08-01T03:23:53;17.33;;;12.52;;
3587;SDS011;1808;53.596;9.972;2022-08-01T03:26:25;20.25;;;13.38;;
3587;SDS011;1808;53.596;9.972;2022-08-01T03:28:52;23.98;;;13.50;;
3587;SDS011;1808;53.596;9.972;2022-08-01T03:31:22;24.77;;;13.35;;
3587;SDS011;1808;53.596;9.972;2022-08-01T03:33:48;25.13;;;14.68;;
3587;SDS011;1808;53.596;9.972;2022-08-01T03:36:15;21.73;;;14.07;;
3587;SDS011;1808;53.596;9.972;2022-08-01T03:38:42;17.55;;;12.23;;
3587;SDS011;1808;53.596;9.972;2022-08-01T03:41:11;21.10;;;13.98;;
3587;SDS011;1808;53.596;9.972;2022-08-01T03:43:42;20.85;;;13.95;;
3587;SDS011;1808;53.596;9.972;2022-08-01T03:46:13;23.70;;;13.98;;
3587;SDS011;1808;53.596;9.972;2022-08-01T03:48:43;24.23;;;14.73;;
3587;SDS011;1808;53.596;9.972;2022-08-01T03:51:13;20.38;;;13.73;;
3587;SDS011;1808;53.596;9.972;2022-08-01T03:53:40;22.05;;;13.88;;
3587;SDS011;1808;53.596;9.972;2022-08-01T03:56:07;26.50;;;13.25;;
3587;SDS011;1808;53.596;9.972;2022-08-01T03:58:34;19.73;;;12.38;;
3587;SDS011;1808;53.596;9.972;2022-08-01T04:01:02;16.55;;;10.82;;
3587;SDS011;1808;53.596;9.972;2022-08-01T04:03:30;18.17;;;10.95;;
3587;SDS011;1808;53.596;9.972;2022-08-01T04:05:56;17.05;;;11.32;;
3587;SDS011;1808;53.596;9.972;2022-08-01T04:08:22;16.27;;;11.27;;
3587;SDS011;1808;53.596;9.972;2022-08-01T04:10:49;15.43;;;10.85;;
3587;SDS011;1808;53.596;9.972;2022-08-01T04:13:15;13.80;;;10.75;;
3587;SDS011;1808;53.596;9.972;2022-08-01T04:15:42;17.35;;;12.40;;
3587;SDS011;1808;53.596;9.972;2022-08-01T04:18:10;18.30;;;10.25;;
3587;SDS011;1808;53.596;9.972;2022-08-01T04:20:36;17.30;;;11.40;;
3587;SDS011;1808;53.596;9.972;2022-08-01T04:23:03;17.10;;;11.48;;
3587;SDS011;1808;53.596;9.972;2022-08-01T04:25:31;17.85;;;11.55;;
3587;SDS011;1808;53.596;9.972;2022-08-01T04:28:00;16.90;;;10.98;;
3587;SDS011;1808;53.596;9.972;2022-08-01T04:30:29;20.77;;;10.38;;
3587;SDS011;1808;53.596;9.972;2022-08-01T04:32:58;14.45;;;9.85;;
3587;SDS011;1808;53.596;9.972;2022-08-01T04:35:28;19.52;;;10.10;;
3587;SDS011;1808;53.596;9.972;2022-08-01T04:37:54;14.60;;;9.50;;
3587;SDS011;1808;53.596;9.972;2022-08-01T04:40:21;12.88;;;8.00;;
3587;SDS011;1808;53.596;9.972;2022-08-01T04:42:49;14.57;;;9.23;;
3587;SDS011;1808;53.596;9.972;2022-08-01T04:45:15;10.43;;;7.00;;
3587;SDS011;1808;53.596;9.972;2022-08-01T04:47:42;9.75;;;7.28;;
3587;SDS011;1808;53.596;9.972;2022-08-01T04:50:09;12.82;;;7.65;;
3587;SDS011;1808;53.596;9.972;2022-08-01T04:52:38;11.15;;;7.28;;
3587;SDS011;1808;53.596;9.972;2022-08-01T04:55:07;10.40;;;6.47;;
3587;SDS011;1808;53.596;9.972;2022-08-01T04:57:37;13.15;;;7.13;;
3587;SDS011;1808;53.596;9.972;2022-08-01T05:00:06;9.85;;;6.85;;
3587;SDS011;1808;53.596;9.972;2022-08-01T05:02:33;11.07;;;7.22;;
3587;SDS011;1808;53.596;9.972;2022-08-01T05:05:00;10.00;;;6.65;;
3587;SDS011;1808;53.596;9.972;2022-08-01T05:07:26;9.10;;;5.80;;
3587;SDS011;1808;53.596;9.972;2022-08-01T05:09:54;8.25;;;4.90;;
3587;SDS011;1808;53.596;9.972;2022-08-01T05:12:20;10.65;;;6.18;;
3587;SDS011;1808;53.596;9.972;2022-08-01T05:14:47;9.30;;;5.68;;
3587;SDS011;1808;53.596;9.972;2022-08-01T05:17:14;7.13;;;5.18;;
3587;SDS011;1808;53.596;9.972;2022-08-01T05:19:41;7.15;;;5.63;;
3587;SDS011;1808;53.596;9.972;2022-08-01T05:22:09;8.02;;;5.72;;
3587;SDS011;1808;53.596;9.972;2022-08-01T05:24:37;6.45;;;4.70;;
3587;SDS011;1808;53.596;9.972;2022-08-01T05:27:05;7.60;;;4.93;;
3587;SDS011;1808;53.596;9.972;2022-08-01T05:29:33;8.80;;;5.75;;
3587;SDS011;1808;53.596;9.972;2022-08-01T05:32:00;6.55;;;4.00;;
3587;SDS011;1808;53.596;9.972;2022-08-01T05:34:26;7.82;;;5.20;;
3587;SDS011;1808;53.596;9.972;2022-08-01T05:36:53;9.73;;;5.50;;
3587;SDS011;1808;53.596;9.972;2022-08-01T05:39:20;14.15;;;7.70;;
3587;SDS011;1808;53.596;9.972;2022-08-01T05:41:46;7.32;;;5.97;;
3587;SDS011;1808;53.596;9.972;2022-08-01T05:44:14;9.27;;;6.60;;
3587;SDS011;1808;53.596;9.972;2022-08-01T05:46:40;9.27;;;6.85;;
3587;SDS011;1808;53.596;9.972;2022-08-01T05:49:07;14.10;;;8.73;;
3587;SDS011;1808;53.596;9.972;2022-08-01T05:51:33;11.88;;;7.90;;
3587;SDS011;1808;53.596;9.972;2022-08-01T05:54:00;9.75;;;6.38;;
3587;SDS011;1808;53.596;9.972;2022-08-01T05:56:27;10.13;;;7.72;;
3587;SDS011;1808;53.596;9.972;2022-08-01T05:58:53;16.70;;;8.05;;
3587;SDS011;1808;53.596;9.972;2022-08-01T06:01:21;13.48;;;5.53;;
3587;SDS011;1808;53.596;9.972;2022-08-01T06:03:48;10.20;;;6.93;;
3587;SDS011;1808;53.596;9.972;2022-08-01T06:06:14;10.05;;;6.05;;
3587;SDS011;1808;53.596;9.972;2022-08-01T06:08:41;15.32;;;10.25;;
3587;SDS011;1808;53.596;9.972;2022-08-01T06:11:07;14.60;;;9.68;;
3587;SDS011;1808;53.596;9.972;2022-08-01T06:13:34;16.38;;;10.10;;
3587;SDS011;1808;53.596;9.972;2022-08-01T06:16:00;13.80;;;9.70;;
3587;SDS011;1808;53.596;9.972;2022-08-01T06:18:28;12.50;;;7.82;;
3587;SDS011;1808;53.596;9.972;2022-08-01T06:20:54;12.75;;;9.27;;
3587;SDS011;1808;53.596;9.972;2022-08-01T06:23:21;16.52;;;10.30;;
3587;SDS011;1808;53.596;9.972;2022-08-01T06:25:47;11.70;;;9.40;;
3587;SDS011;1808;53.596;9.972;2022-08-01T06:28:14;16.35;;;9.80;;
3587;SDS011;1808;53.596;9.972;2022-08-01T06:30:40;17.42;;;9.52;;
3587;SDS011;1808;53.596;9.972;2022-08-01T06:33:07;17.30;;;9.32;;
3587;SDS011;1808;53.596;9.972;2022-08-01T06:35:35;11.63;;;7.93;;
3587;SDS011;1808;53.596;9.972;2022-08-01T06:38:01;14.05;;;9.85;;
3587;SDS011;1808;53.596;9.972;2022-08-01T06:40:28;13.88;;;8.95;;
3587;SDS011;1808;53.596;9.972;2022-08-01T06:42:55;21.88;;;12.88;;
3587;SDS011;1808;53.596;9.972;2022-08-01T06:45:21;19.88;;;12.73;;
3587;SDS011;1808;53.596;9.972;2022-08-01T06:47:49;21.20;;;13.70;;
3587;SDS011;1808;53.596;9.972;2022-08-01T06:50:16;19.70;;;11.50;;
3587;SDS011;1808;53.596;9.972;2022-08-01T06:52:44;17.63;;;11.65;;
3587;SDS011;1808;53.596;9.972;2022-08-01T06:55:10;20.38;;;11.60;;
3587;SDS011;1808;53.596;9.972;2022-08-01T06:57:44;21.65;;;12.43;;
3587;SDS011;1808;53.596;9.972;2022-08-01T07:00:11;19.10;;;10.05;;
3587;SDS011;1808;53.596;9.972;2022-08-01T07:02:39;22.95;;;12.05;;
3587;SDS011;1808;53.596;9.972;2022-08-01T07:05:06;19.92;;;12.10;;
3587;SDS011;1808;53.596;9.972;2022-08-01T07:07:33;18.33;;;10.40;;
3587;SDS011;1808;53.596;9.972;2022-08-01T07:10:01;18.77;;;11.25;;
3587;SDS011;1808;53.596;9.972;2022-08-01T07:12:28;15.05;;;8.98;;
3587;SDS011;1808;53.596;9.972;2022-08-01T07:14:54;19.25;;;10.50;;
3587;SDS011;1808;53.596;9.972;2022-08-01T07:17:21;16.08;;;10.63;;
3587;SDS011;1808;53.596;9.972;2022-08-01T07:19:47;14.88;;;11.18;;
3587;SDS011;1808;53.596;9.972;2022-08-01T07:22:14;18.08;;;10.20;;
3587;SDS011;1808;53.596;9.972;2022-08-01T07:24:43;20.73;;;10.18;;
3587;SDS011;1808;53.596;9.972;2022-08-01T07:27:11;22.58;;;13.57;;
3587;SDS011;1808;53.596;9.972;2022-08-01T07:29:37;22.65;;;15.52;;
3587;SDS011;1808;53.596;9.972;2022-08-01T07:32:04;22.83;;;13.40;;
3587;SDS011;1808;53.596;9.972;2022-08-01T07:34:31;23.00;;;13.02;;
3587;SDS011;1808;53.596;9.972;2022-08-01T07:36:58;17.02;;;11.10;;
3587;SDS011;1808;53.596;9.972;2022-08-01T07:39:24;20.52;;;12.63;;
3587;SDS011;1808;53.596;9.972;2022-08-01T07:41:50;16.88;;;12.18;;
3587;SDS011;1808;53.596;9.972;2022-08-01T07:44:18;21.63;;;10.15;;
3587;SDS011;1808;53.596;9.972;2022-08-01T07:46:45;20.05;;;10.60;;
3587;SDS011;1808;53.596;9.972;2022-08-01T07:49:11;17.58;;;9.15;;
3587;SDS011;1808;53.596;9.972;2022-08-01T07:51:38;17.83;;;8.88;;
3587;SDS011;1808;53.596;9.972;2022-08-01T07:54:04;17.80;;;7.78;;
3587;SDS011;1808;53.596;9.972;2022-08-01T07:56:32;14.85;;;7.88;;
3587;SDS011;1808;53.596;9.972;2022-08-01T07:58:58;16.98;;;7.63;;
3587;SDS011;1808;53.596;9.972;2022-08-01T08:01:26;13.95;;;5.43;;
3587;SDS011;1808;53.596;9.972;2022-08-01T08:03:52;10.20;;;4.57;;
3587;SDS011;1808;53.596;9.972;2022-08-01T08:06:19;16.77;;;4.45;;
3587;SDS011;1808;53.596;9.972;2022-08-01T08:08:45;9.77;;;4.78;;
3587;SDS011;1808;53.596;9.972;2022-08-01T08:11:12;12.40;;;4.57;;
3587;SDS011;1808;53.596;9.972;2022-08-01T08:13:38;11.18;;;4.22;;
3587;SDS011;1808;53.596;9.972;2022-08-01T08:16:05;11.88;;;3.80;;
3587;SDS011;1808;53.596;9.972;2022-08-01T08:18:32;10.20;;;3.00;;
3587;SDS011;1808;53.596;9.972;2022-08-01T08:20:59;12.60;;;3.40;;
3587;SDS011;1808;53.596;9.972;2022-08-01T08:23:25;15.75;;;3.28;;
3587;SDS011;1808;53.596;9.972;2022-08-01T08:26:09;11.85;;;4.45;;
3587;SDS011;1808;53.596;9.972;2022-08-01T08:28:36;11.75;;;3.50;;
3587;SDS011;1808;53.596;9.972;2022-08-01T08:31:02;10.52;;;3.03;;
3587;SDS011;1808;53.596;9.972;2022-08-01T08:33:29;8.38;;;2.95;;
3587;SDS011;1808;53.596;9.972;2022-08-01T08:35:57;12.18;;;3.40;;
3587;SDS011;1808;53.596;9.972;2022-08-01T08:38:23;9.85;;;3.70;;
3587;SDS011;1808;53.596;9.972;2022-08-01T08:40:52;8.07;;;2.85;;
3587;SDS011;1808;53.596;9.972;2022-08-01T08:43:18;6.65;;;2.65;;
3587;SDS011;1808;53.596;9.972;2022-08-01T08:45:45;7.40;;;2.58;;
3587;SDS011;1808;53.596;9.972;2022-08-01T08:48:12;15.63;;;3.20;;
3587;SDS011;1808;53.596;9.972;2022-08-01T08:50:40;12.75;;;3.55;;
3587;SDS011;1808;53.596;9.972;2022-08-01T08:53:09;9.55;;;2.78;;
3587;SDS011;1808;53.596;9.972;2022-08-01T08:55:36;12.80;;;3.97;;
3587;SDS011;1808;53.596;9.972;2022-08-01T08:58:03;12.43;;;3.97;;
3587;SDS011;1808;53.596;9.972;2022-08-01T09:00:30;8.60;;;2.53;;
3587;SDS011;1808;53.596;9.972;2022-08-01T09:02:57;10.23;;;2.70;;
3587;SDS011;1808;53.596;9.972;2022-08-01T09:05:24;8.35;;;2.50;;
3587;SDS011;1808;53.596;9.972;2022-08-01T09:07:51;7.03;;;2.03;;
3587;SDS011;1808;53.596;9.972;2022-08-01T09:10:19;7.15;;;2.25;;
3587;SDS011;1808;53.596;9.972;2022-08-01T09:13:02;10.32;;;2.60;;
3587;SDS011;1808;53.596;9.972;2022-08-01T09:15:37;10.63;;;2.67;;
3587;SDS011;1808;53.596;9.972;2022-08-01T09:18:04;9.10;;;2.50;;
3587;SDS011;1808;53.596;9.972;2022-08-01T09:20:31;9.07;;;2.50;;
3587;SDS011;1808;53.596;9.972;2022-08-01T09:22:59;7.45;;;2.22;;
3587;SDS011;1808;53.596;9.972;2022-08-01T09:25:27;10.07;;;2.70;;
3587;SDS011;1808;53.596;9.972;2022-08-01T09:28:02;9.37;;;2.30;;
3587;SDS011;1808;53.596;9.972;2022-08-01T09:30:30;6.32;;;1.90;;
3587;SDS011;1808;53.596;9.972;2022-08-01T09:33:03;9.75;;;2.15;;
3587;SDS011;1808;53.596;9.972;2022-08-01T09:35:30;11.10;;;2.67;;
3587;SDS011;1808;53.596;9.972;2022-08-01T09:38:15;10.98;;;2.40;;
3587;SDS011;1808;53.596;9.972;2022-08-01T09:40:51;13.10;;;2.45;;
3587;SDS011;1808;53.596;9.972;2022-08-01T09:43:19;8.93;;;2.70;;
3587;SDS011;1808;53.596;9.972;2022-08-01T09:45:46;7.40;;;2.35;;
3587;SDS011;1808;53.596;9.972;2022-08-01T09:48:13;11.57;;;2.40;;
3587;SDS011;1808;53.596;9.972;2022-08-01T09:50:41;15.60;;;3.60;;
3587;SDS011;1808;53.596;9.972;2022-08-01T09:53:07;14.38;;;3.22;;
3587;SDS011;1808;53.596;9.972;2022-08-01T09:55:34;13.48;;;3.95;;
3587;SDS011;1808;53.596;9.972;2022-08-01T09:58:02;10.07;;;2.80;;
3587;SDS011;1808;53.596;9.972;2022-08-01T10:00:30;10.57;;;3.42;;
3587;SDS011;1808;53.596;9.972;2022-08-01T10:03:00;9.75;;;3.35;;
3587;SDS011;1808;53.596;9.972;2022-08-01T10:05:45;13.20;;;4.53;;
3587;SDS011;1808;53.596;9.972;2022-08-01T10:08:12;15.73;;;4.55;;
3587;SDS011;1808;53.596;9.972;2022-08-01T10:10:39;17.58;;;4.43;;
3587;SDS011;1808;53.596;9.972;2022-08-01T10:13:07;9.65;;;3.92;;
3587;SDS011;1808;53.596;9.972;2022-08-01T10:15:34;11.43;;;4.10;;
3587;SDS011;1808;53.596;9.972;2022-08-01T10:18:01;10.65;;;3.95;;
3587;SDS011;1808;53.596;9.972;2022-08-01T10:20:31;10.70;;;4.82;;
3587;SDS011;1808;53.596;9.972;2022-08-01T10:22:59;9.65;;;4.35;;
3587;SDS011;1808;53.596;9.972;2022-08-01T10:25:27;9.77;;;4.53;;
3587;SDS011;1808;53.596;9.972;2022-08-01T10:27:54;8.95;;;3.78;;
3587;SDS011;1808;53.596;9.972;2022-08-01T10:30:22;14.40;;;4.10;;
3587;SDS011;1808;53.596;9.972;2022-08-01T10:32:49;10.65;;;3.45;;
3587;SDS011;1808;53.596;9.972;2022-08-01T10:35:17;9.27;;;3.80;;
3587;SDS011;1808;53.596;9.972;2022-08-01T10:37:43;6.97;;;2.90;;
3587;SDS011;1808;53.596;9.972;2022-08-01T10:40:11;9.80;;;2.47;;
3587;SDS011;1808;53.596;9.972;2022-08-01T10:42:39;10.75;;;2.70;;
3587;SDS011;1808;53.596;9.972;2022-08-01T10:45:05;7.90;;;2.47;;
3587;SDS011;1808;53.596;9.972;2022-08-01T10:47:35;8.82;;;2.95;;
3587;SDS011;1808;53.596;9.972;2022-08-01T10:50:07;9.60;;;3.13;;
3587;SDS011;1808;53.596;9.972;2022-08-01T10:55:04;7.05;;;2.20;;
3587;SDS011;1808;53.596;9.972;2022-08-01T10:57:41;6.00;;;2.45;;
3587;SDS011;1808;53.596;9.972;2022-08-01T11:00:08;10.93;;;2.58;;
3587;SDS011;1808;53.596;9.972;2022-08-01T11:02:38;10.48;;;2.55;;
3587;SDS011;1808;53.596;9.972;2022-08-01T11:05:07;9.88;;;2.50;;
3587;SDS011;1808;53.596;9.972;2022-08-01T11:07:39;7.90;;;2.33;;
3587;SDS011;1808;53.596;9.972;2022-08-01T11:10:15;7.68;;;2.25;;
3587;SDS011;1808;53.596;9.972;2022-08-01T11:12:47;10.18;;;1.83;;
3587;SDS011;1808;53.596;9.972;2022-08-01T11:15:21;8.05;;;2.55;;
3587;SDS011;1808;53.596;9.972;2022-08-01T11:17:54;5.93;;;2.22;;
3587;SDS011;1808;53.596;9.972;2022-08-01T11:20:21;8.35;;;1.33;;
3587;SDS011;1808;53.596;9.972;2022-08-01T11:28:37;5.65;;;1.70;;
3587;SDS011;1808;53.596;9.972;2022-08-01T11:31:24;7.43;;;2.25;;
3587;SDS011;1808;53.596;9.972;2022-08-01T11:33:56;8.07;;;1.98;;
3587;SDS011;1808;53.596;9.972;2022-08-01T11:36:23;6.82;;;1.92;;
3587;SDS011;1808;53.596;9.972;2022-08-01T11:41:38;10.07;;;1.95;;
3587;SDS011;1808;53.596;9.972;2022-08-01T11:44:06;5.68;;;1.77;;
3587;SDS011;1808;53.596;9.972;2022-08-01T11:49:31;20.08;;;2.10;;
3587;SDS011;1808;53.596;9.972;2022-08-01T11:52:04;9.73;;;1.60;;
3587;SDS011;1808;53.596;9.972;2022-08-01T11:54:32;8.35;;;1.98;;
3587;SDS011;1808;53.596;9.972;2022-08-01T11:57:00;10.82;;;1.83;;
3587;SDS011;1808;53.596;9.972;2022-08-01T11:59:27;9.90;;;2.38;;
3587;SDS011;1808;53.596;9.972;2022-08-01T12:01:54;6.50;;;1.70;;
3587;SDS011;1808;53.596;9.972;2022-08-01T12:04:20;5.90;;;1.85;;
3587;SDS011;1808;53.596;9.972;2022-08-01T12:06:48;7.00;;;1.80;;
3587;SDS011;1808;53.596;9.972;2022-08-01T12:09:15;9.65;;;2.60;;
3587;SDS011;1808;53.596;9.972;2022-08-01T12:11:45;7.80;;;1.75;;
3587;SDS011;1808;53.596;9.972;2022-08-01T12:14:15;5.93;;;1.85;;
3587;SDS011;1808;53.596;9.972;2022-08-01T12:16:51;6.60;;;1.98;;
3587;SDS011;1808;53.596;9.972;2022-08-01T12:19:19;9.90;;;1.88;;
3587;SDS011;1808;53.596;9.972;2022-08-01T12:24:33;8.85;;;1.90;;
3587;SDS011;1808;53.596;9.972;2022-08-01T12:26:59;10.57;;;1.80;;
3587;SDS011;1808;53.596;9.972;2022-08-01T12:29:33;8.98;;;2.10;;
3587;SDS011;1808;53.596;9.972;2022-08-01T12:32:00;8.70;;;2.30;;
3587;SDS011;1808;53.596;9.972;2022-08-01T12:34:27;9.25;;;2.20;;
3587;SDS011;1808;53.596;9.972;2022-08-01T12:36:54;5.07;;;1.55;;
3587;SDS011;1808;53.596;9.972;2022-08-01T12:39:23;7.95;;;1.60;;
3587;SDS011;1808;53.596;9.972;2022-08-01T12:41:55;7.93;;;1.73;;
3587;SDS011;1808;53.596;9.972;2022-08-01T12:44:21;6.82;;;1.65;;
3587;SDS011;1808;53.596;9.972;2022-08-01T12:46:48;5.82;;;1.30;;
3587;SDS011;1808;53.596;9.972;2022-08-01T12:49:15;6.82;;;1.85;;
3587;SDS011;1808;53.596;9.972;2022-08-01T12:51:41;8.18;;;2.00;;
3587;SDS011;1808;53.596;9.972;2022-08-01T12:54:07;9.52;;;1.27;;
3587;SDS011;1808;53.596;9.972;2022-08-01T12:56:36;5.85;;;1.17;;
3587;SDS011;1808;53.596;9.972;2022-08-01T13:01:49;8.50;;;2.28;;
3587;SDS011;1808;53.596;9.972;2022-08-01T13:04:16;5.45;;;1.48;;
3587;SDS011;1808;53.596;9.972;2022-08-01T13:06:43;6.50;;;1.52;;
3587;SDS011;1808;53.596;9.972;2022-08-01T13:09:09;10.20;;;1.85;;
3587;SDS011;1808;53.596;9.972;2022-08-01T13:11:39;7.30;;;2.10;;
3587;SDS011;1808;53.596;9.972;2022-08-01T13:14:06;7.20;;;1.73;;
3587;SDS011;1808;53.596;9.972;2022-08-01T13:16:34;6.40;;;2.53;;
3587;SDS011;1808;53.596;9.972;2022-08-01T13:19:12;11.85;;;2.45;;
3587;SDS011;1808;53.596;9.972;2022-08-01T13:21:38;10.60;;;1.88;;
3587;SDS011;1808;53.596;9.972;2022-08-01T13:24:05;6.63;;;1.45;;
3587;SDS011;1808;53.596;9.972;2022-08-01T13:26:42;5.93;;;1.65;;
3587;SDS011;1808;53.596;9.972;2022-08-01T13:29:11;4.90;;;1.42;;
3587;SDS011;1808;53.596;9.972;2022-08-01T13:31:40;7.28;;;1.70;;
3587;SDS011;1808;53.596;9.972;2022-08-01T13:34:07;6.85;;;1.45;;
3587;SDS011;1808;53.596;9.972;2022-08-01T13:36:34;9.95;;;1.88;;
3587;SDS011;1808;53.596;9.972;2022-08-01T13:39:01;5.97;;;1.40;;
3587;SDS011;1808;53.596;9.972;2022-08-01T13:41:47;6.35;;;1.50;;
3587;SDS011;1808;53.596;9.972;2022-08-01T13:44:14;7.32;;;1.48;;
3587;SDS011;1808;53.596;9.972;2022-08-01T13:46:41;7.60;;;2.15;;
3587;SDS011;1808;53.596;9.972;2022-08-01T13:49:09;7.50;;;1.45;;
3587;SDS011;1808;53.596;9.972;2022-08-01T13:51:36;10.20;;;1.83;;
3587;SDS011;1808;53.596;9.972;2022-08-01T13:54:04;5.22;;;1.40;;
3587;SDS011;1808;53.596;9.972;2022-08-01T13:56:31;9.15;;;1.70;;
3587;SDS011;1808;53.596;9.972;2022-08-01T13:58:59;8.35;;;1.60;;
3587;SDS011;1808;53.596;9.972;2022-08-01T14:01:26;5.40;;;1.60;;
3587;SDS011;1808;53.596;9.972;2022-08-01T14:03:52;6.68;;;1.10;;
3587;SDS011;1808;53.596;9.972;2022-08-01T14:06:19;4.47;;;1.27;;
3587;SDS011;1808;53.596;9.972;2022-08-01T14:08:47;8.13;;;1.70;;
3587;SDS011;1808;53.596;9.972;2022-08-01T14:11:14;5.70;;;1.23;;
3587;SDS011;1808;53.596;9.972;2022-08-01T14:13:40;8.85;;;1.38;;
3587;SDS011;1808;53.596;9.972;2022-08-01T14:16:09;6.25;;;1.52;;
3587;SDS011;1808;53.596;9.972;2022-08-01T14:18:35;7.88;;;1.75;;
3587;SDS011;1808;53.596;9.972;2022-08-01T14:21:02;4.72;;;1.25;;
3587;SDS011;1808;53.596;9.972;2022-08-01T14:23:29;6.88;;;1.45;;
3587;SDS011;1808;53.596;9.972;2022-08-01T14:25:55;6.75;;;1.60;;
3587;SDS011;1808;53.596;9.972;2022-08-01T14:28:21;8.95;;;1.75;;
3587;SDS011;1808;53.596;9.972;2022-08-01T14:30:49;5.97;;;2.00;;
3587;SDS011;1808;53.596;9.972;2022-08-01T14:33:16;5.70;;;1.38;;
3587;SDS011;1808;53.596;9.972;2022-08-01T14:35:43;5.70;;;1.45;;
3587;SDS011;1808;53.596;9.972;2022-08-01T14:38:10;7.03;;;1.33;;
3587;SDS011;1808;53.596;9.972;2022-08-01T14:40:36;6.70;;;1.55;;
3587;SDS011;1808;53.596;9.972;2022-08-01T14:43:02;8.20;;;1.70;;
3587;SDS011;1808;53.596;9.972;2022-08-01T14:45:29;7.50;;;1.52;;
3587;SDS011;1808;53.596;9.972;2022-08-01T14:47:55;8.30;;;1.90;;
3587;SDS011;1808;53.596;9.972;2022-08-01T14:50:23;6.65;;;1.55;;
3587;SDS011;1808;53.596;9.972;2022-08-01T14:52:51;6.90;;;1.73;;
3587;SDS011;1808;53.596;9.972;2022-08-01T14:55:18;7.32;;;2.05;;
3587;SDS011;1808;53.596;9.972;2022-08-01T14:57:48;8.18;;;1.70;;
3587;SDS011;1808;53.596;9.972;2022-08-01T15:00:15;3.72;;;1.50;;
3587;SDS011;1808;53.596;9.972;2022-08-01T15:02:42;5.20;;;1.58;;
3587;SDS011;1808;53.596;9.972;2022-08-01T15:05:08;10.38;;;1.70;;
3587;SDS011;1808;53.596;9.972;2022-08-01T15:07:36;9.05;;;2.10;;
3587;SDS011;1808;53.596;9.972;2022-08-01T15:10:04;7.75;;;2.00;;
3587;SDS011;1808;53.596;9.972;2022-08-01T15:12:31;6.50;;;1.67;;
3587;SDS011;1808;53.596;9.972;2022-08-01T15:14:58;6.40;;;1.92;;
3587;SDS011;1808;53.596;9.972;2022-08-01T15:17:25;8.50;;;2.38;;
3587;SDS011;1808;53.596;9.972;2022-08-01T15:19:54;6.97;;;2.45;;
3587;SDS011;1808;53.596;9.972;2022-08-01T15:22:21;10.23;;;2.10;;
3587;SDS011;1808;53.596;9.972;2022-08-01T15:24:50;7.03;;;1.73;;